sensor_id;sensor_type;location;lat;lon;timestamp;P1;durP1;ratioP1;P2;durP2;ratioP2
19030;SDS011;9648;51.130;13.978;2023-02-25T00:01:25;18.13;;;11.38;;
19030;SDS011;9648;51.130;13.978;2023-02-25T00:03:53;15.05;;;9.95;;
19030;SDS011;9648;51.130;13.978;2023-02-25T00:06:21;16.08;;;9.73;;
19030;SDS011;9648;51.130;13.978;2023-02-25T00:08:48;14.18;;;9.20;;
19030;SDS011;9648;51.130;13.978;2023-02-25T00:11:16;14.18;;;9.30;;
19030;SDS011;9648;51.130;13.978;2023-02-25T00:13:44;16.77;;;10.37;;
19030;SDS011;9648;51.130;13.978;2023-02-25T00:16:11;16.45;;;10.18;;
19030;SDS011;9648;51.130;13.978;2023-02-25T00:18:40;15.43;;;10.13;;
19030;SDS011;9648;51.130;13.978;2023-02-25T00:21:10;15.10;;;9.80;;
19030;SDS011;9648;51.130;13.978;2023-02-25T00:23:39;18.08;;;10.50;;
19030;SDS011;9648;51.130;13.978;2023-02-25T00:26:16;17.08;;;11.10;;
19030;SDS011;9648;51.130;13.978;2023-02-25T00:28:43;18.00;;;11.20;;
19030;SDS011;9648;51.130;13.978;2023-02-25T00:31:12;17.00;;;10.70;;
19030;SDS011;9648;51.130;13.978;2023-02-25T00:33:42;18.40;;;10.88;;
19030;SDS011;9648;51.130;13.978;2023-02-25T00:36:10;17.60;;;10.40;;
19030;SDS011;9648;51.130;13.978;2023-02-25T00:38:38;17.83;;;10.40;;
19030;SDS011;9648;51.130;13.978;2023-02-25T00:41:06;17.23;;;10.65;;
19030;SDS011;9648;51.130;13.978;2023-02-25T00:43:35;16.17;;;10.70;;
19030;SDS011;9648;51.130;13.978;2023-02-25T00:46:03;17.33;;;10.85;;
19030;SDS011;9648;51.130;13.978;2023-02-25T00:48:31;18.58;;;11.07;;
19030;SDS011;9648;51.130;13.978;2023-02-25T00:51:04;21.13;;;10.88;;
19030;SDS011;9648;51.130;13.978;2023-02-25T00:53:32;19.52;;;10.95;;
19030;SDS011;9648;51.130;13.978;2023-02-25T00:55:59;17.50;;;11.07;;
19030;SDS011;9648;51.130;13.978;2023-02-25T00:58:26;17.73;;;10.60;;
19030;SDS011;9648;51.130;13.978;2023-02-25T01:00:53;19.98;;;10.82;;
19030;SDS011;9648;51.130;13.978;2023-02-25T01:03:20;16.80;;;11.15;;
19030;SDS011;9648;51.130;13.978;2023-02-25T01:05:47;21.17;;;11.83;;
19030;SDS011;9648;51.130;13.978;2023-02-25T01:08:15;18.27;;;10.77;;
19030;SDS011;9648;51.130;13.978;2023-02-25T01:10:43;19.67;;;11.70;;
19030;SDS011;9648;51.130;13.978;2023-02-25T01:13:11;19.35;;;11.15;;
19030;SDS011;9648;51.130;13.978;2023-02-25T01:15:38;19.25;;;11.02;;
19030;SDS011;9648;51.130;13.978;2023-02-25T01:18:05;20.63;;;11.35;;
19030;SDS011;9648;51.130;13.978;2023-02-25T01:20:32;16.25;;;10.55;;
19030;SDS011;9648;51.130;13.978;2023-02-25T01:23:03;16.40;;;10.40;;
19030;SDS011;9648;51.130;13.978;2023-02-25T01:25:31;18.13;;;11.07;;
19030;SDS011;9648;51.130;13.978;2023-02-25T01:27:58;20.40;;;11.50;;
19030;SDS011;9648;51.130;13.978;2023-02-25T01:30:24;18.48;;;11.40;;
19030;SDS011;9648;51.130;13.978;2023-02-25T01:32:51;19.70;;;11.57;;
19030;SDS011;9648;51.130;13.978;2023-02-25T01:35:18;17.98;;;11.13;;
19030;SDS011;9648;51.130;13.978;2023-02-25T01:37:44;19.90;;;11.23;;
19030;SDS011;9648;51.130;13.978;2023-02-25T01:40:16;18.38;;;10.98;;
19030;SDS011;9648;51.130;13.978;2023-02-25T01:42:45;18.27;;;10.67;;
19030;SDS011;9648;51.130;13.978;2023-02-25T01:45:28;18.80;;;10.18;;
19030;SDS011;9648;51.130;13.978;2023-02-25T01:48:08;17.50;;;10.23;;
19030;SDS011;9648;51.130;13.978;2023-02-25T01:50:43;18.35;;;9.95;;
19030;SDS011;9648;51.130;13.978;2023-02-25T01:53:14;18.23;;;10.00;;
19030;SDS011;9648;51.130;13.978;2023-02-25T01:55:44;19.02;;;10.05;;
19030;SDS011;9648;51.130;13.978;2023-02-25T01:58:14;16.60;;;9.57;;
19030;SDS011;9648;51.130;13.978;2023-02-25T02:00:42;16.17;;;10.00;;
19030;SDS011;9648;51.130;13.978;2023-02-25T02:03:09;16.40;;;9.93;;
19030;SDS011;9648;51.130;13.978;2023-02-25T02:05:41;16.00;;;8.38;;
19030;SDS011;9648;51.130;13.978;2023-02-25T02:08:16;16.80;;;8.80;;
19030;SDS011;9648;51.130;13.978;2023-02-25T02:10:42;16.30;;;8.85;;
19030;SDS011;9648;51.130;13.978;2023-02-25T02:13:09;16.83;;;9.43;;
19030;SDS011;9648;51.130;13.978;2023-02-25T02:15:38;16.98;;;9.57;;
19030;SDS011;9648;51.130;13.978;2023-02-25T02:18:09;16.10;;;8.88;;
19030;SDS011;9648;51.130;13.978;2023-02-25T02:20:39;16.70;;;8.43;;
19030;SDS011;9648;51.130;13.978;2023-02-25T02:23:21;17.60;;;8.77;;
19030;SDS011;9648;51.130;13.978;2023-02-25T02:26:09;19.15;;;8.80;;
19030;SDS011;9648;51.130;13.978;2023-02-25T02:29:16;15.77;;;8.18;;
19030;SDS011;9648;51.130;13.978;2023-02-25T02:32:13;15.60;;;7.53;;
19030;SDS011;9648;51.130;13.978;2023-02-25T02:34:45;17.43;;;7.57;;
19030;SDS011;9648;51.130;13.978;2023-02-25T02:37:20;16.08;;;7.45;;
19030;SDS011;9648;51.130;13.978;2023-02-25T02:39:56;16.42;;;7.05;;
19030;SDS011;9648;51.130;13.978;2023-02-25T02:42:36;17.40;;;7.47;;
19030;SDS011;9648;51.130;13.978;2023-02-25T02:45:10;15.07;;;7.38;;
19030;SDS011;9648;51.130;13.978;2023-02-25T02:47:43;16.50;;;6.72;;
19030;SDS011;9648;51.130;13.978;2023-02-25T02:50:13;15.90;;;6.80;;
19030;SDS011;9648;51.130;13.978;2023-02-25T02:52:49;15.35;;;6.18;;
19030;SDS011;9648;51.130;13.978;2023-02-25T02:55:19;14.85;;;6.05;;
19030;SDS011;9648;51.130;13.978;2023-02-25T02:57:49;13.27;;;5.70;;
19030;SDS011;9648;51.130;13.978;2023-02-25T03:00:20;14.90;;;6.00;;
19030;SDS011;9648;51.130;13.978;2023-02-25T03:02:54;14.07;;;6.35;;
19030;SDS011;9648;51.130;13.978;2023-02-25T03:05:26;14.73;;;5.65;;
19030;SDS011;9648;51.130;13.978;2023-02-25T03:07:58;14.43;;;6.30;;
19030;SDS011;9648;51.130;13.978;2023-02-25T03:10:30;13.53;;;6.10;;
19030;SDS011;9648;51.130;13.978;2023-02-25T03:12:57;13.00;;;5.85;;
19030;SDS011;9648;51.130;13.978;2023-02-25T03:15:24;14.27;;;5.88;;
19030;SDS011;9648;51.130;13.978;2023-02-25T03:17:55;13.85;;;5.35;;
19030;SDS011;9648;51.130;13.978;2023-02-25T03:20:26;14.43;;;5.18;;
19030;SDS011;9648;51.130;13.978;2023-02-25T03:22:55;14.05;;;4.93;;
19030;SDS011;9648;51.130;13.978;2023-02-25T03:25:27;11.53;;;4.80;;
19030;SDS011;9648;51.130;13.978;2023-02-25T03:27:58;14.70;;;5.05;;
19030;SDS011;9648;51.130;13.978;2023-02-25T03:30:30;15.07;;;5.80;;
19030;SDS011;9648;51.130;13.978;2023-02-25T03:33:04;12.70;;;4.50;;
19030;SDS011;9648;51.130;13.978;2023-02-25T03:35:34;10.87;;;3.60;;
19030;SDS011;9648;51.130;13.978;2023-02-25T03:38:05;11.40;;;4.25;;
19030;SDS011;9648;51.130;13.978;2023-02-25T03:40:34;12.35;;;4.20;;
19030;SDS011;9648;51.130;13.978;2023-02-25T03:43:05;11.52;;;3.85;;
19030;SDS011;9648;51.130;13.978;2023-02-25T03:45:35;11.15;;;3.85;;
19030;SDS011;9648;51.130;13.978;2023-02-25T03:48:05;10.50;;;3.70;;
19030;SDS011;9648;51.130;13.978;2023-02-25T03:50:34;12.82;;;4.00;;
19030;SDS011;9648;51.130;13.978;2023-02-25T03:53:05;11.18;;;3.67;;
19030;SDS011;9648;51.130;13.978;2023-02-25T03:55:32;9.32;;;3.50;;
19030;SDS011;9648;51.130;13.978;2023-02-25T03:58:00;10.98;;;3.25;;
19030;SDS011;9648;51.130;13.978;2023-02-25T04:00:27;9.05;;;3.30;;
19030;SDS011;9648;51.130;13.978;2023-02-25T04:02:56;8.85;;;3.22;;
19030;SDS011;9648;51.130;13.978;2023-02-25T04:05:26;8.43;;;3.00;;
19030;SDS011;9648;51.130;13.978;2023-02-25T04:07:53;8.23;;;3.00;;
19030;SDS011;9648;51.130;13.978;2023-02-25T04:10:20;8.18;;;3.00;;
19030;SDS011;9648;51.130;13.978;2023-02-25T04:12:47;8.93;;;2.88;;
19030;SDS011;9648;51.130;13.978;2023-02-25T04:15:14;7.77;;;3.00;;
19030;SDS011;9648;51.130;13.978;2023-02-25T04:17:42;7.25;;;2.97;;
19030;SDS011;9648;51.130;13.978;2023-02-25T04:20:10;5.70;;;3.10;;
19030;SDS011;9648;51.130;13.978;2023-02-25T04:22:39;7.47;;;3.35;;
19030;SDS011;9648;51.130;13.978;2023-02-25T04:25:06;7.65;;;3.45;;
19030;SDS011;9648;51.130;13.978;2023-02-25T04:27:33;7.28;;;3.30;;
19030;SDS011;9648;51.130;13.978;2023-02-25T04:30:00;7.25;;;3.15;;
19030;SDS011;9648;51.130;13.978;2023-02-25T04:32:27;5.85;;;3.10;;
19030;SDS011;9648;51.130;13.978;2023-02-25T04:34:53;5.15;;;2.85;;
19030;SDS011;9648;51.130;13.978;2023-02-25T04:37:21;4.65;;;2.58;;
19030;SDS011;9648;51.130;13.978;2023-02-25T04:39:49;5.60;;;2.80;;
19030;SDS011;9648;51.130;13.978;2023-02-25T04:42:16;5.53;;;2.90;;
19030;SDS011;9648;51.130;13.978;2023-02-25T04:44:43;5.05;;;3.08;;
19030;SDS011;9648;51.130;13.978;2023-02-25T04:47:09;5.97;;;3.05;;
19030;SDS011;9648;51.130;13.978;2023-02-25T04:49:36;5.97;;;3.05;;
19030;SDS011;9648;51.130;13.978;2023-02-25T04:52:08;7.00;;;3.53;;
19030;SDS011;9648;51.130;13.978;2023-02-25T04:54:36;6.72;;;3.72;;
19030;SDS011;9648;51.130;13.978;2023-02-25T04:57:04;6.57;;;4.05;;
19030;SDS011;9648;51.130;13.978;2023-02-25T04:59:31;8.90;;;3.75;;
19030;SDS011;9648;51.130;13.978;2023-02-25T05:01:58;7.88;;;4.10;;
19030;SDS011;9648;51.130;13.978;2023-02-25T05:04:24;9.68;;;4.15;;
19030;SDS011;9648;51.130;13.978;2023-02-25T05:06:51;9.75;;;4.60;;
19030;SDS011;9648;51.130;13.978;2023-02-25T05:09:18;8.90;;;4.43;;
19030;SDS011;9648;51.130;13.978;2023-02-25T05:11:46;8.93;;;4.20;;
19030;SDS011;9648;51.130;13.978;2023-02-25T05:14:14;9.90;;;4.10;;
19030;SDS011;9648;51.130;13.978;2023-02-25T05:16:40;7.63;;;4.13;;
19030;SDS011;9648;51.130;13.978;2023-02-25T05:19:07;9.25;;;4.55;;
19030;SDS011;9648;51.130;13.978;2023-02-25T05:21:34;7.97;;;4.18;;
19030;SDS011;9648;51.130;13.978;2023-02-25T05:24:01;6.32;;;4.18;;
19030;SDS011;9648;51.130;13.978;2023-02-25T05:26:28;8.85;;;4.13;;
19030;SDS011;9648;51.130;13.978;2023-02-25T05:28:55;11.10;;;4.50;;
19030;SDS011;9648;51.130;13.978;2023-02-25T05:31:24;7.23;;;4.27;;
19030;SDS011;9648;51.130;13.978;2023-02-25T05:33:51;8.13;;;4.30;;
19030;SDS011;9648;51.130;13.978;2023-02-25T05:36:18;6.40;;;4.00;;
19030;SDS011;9648;51.130;13.978;2023-02-25T05:38:44;8.00;;;4.32;;
19030;SDS011;9648;51.130;13.978;2023-02-25T05:41:11;7.63;;;4.53;;
19030;SDS011;9648;51.130;13.978;2023-02-25T05:43:39;7.47;;;4.38;;
19030;SDS011;9648;51.130;13.978;2023-02-25T05:46:07;11.15;;;4.80;;
19030;SDS011;9648;51.130;13.978;2023-02-25T05:48:37;7.43;;;4.20;;
19030;SDS011;9648;51.130;13.978;2023-02-25T05:51:06;7.00;;;4.00;;
19030;SDS011;9648;51.130;13.978;2023-02-25T05:53:33;6.55;;;4.25;;
19030;SDS011;9648;51.130;13.978;2023-02-25T05:56:02;7.70;;;4.30;;
19030;SDS011;9648;51.130;13.978;2023-02-25T05:58:30;6.75;;;4.55;;
19030;SDS011;9648;51.130;13.978;2023-02-25T06:00:57;5.93;;;3.85;;
19030;SDS011;9648;51.130;13.978;2023-02-25T06:03:24;6.50;;;4.10;;
19030;SDS011;9648;51.130;13.978;2023-02-25T06:05:52;5.75;;;4.20;;
19030;SDS011;9648;51.130;13.978;2023-02-25T06:08:19;5.72;;;3.88;;
19030;SDS011;9648;51.130;13.978;2023-02-25T06:10:46;5.03;;;3.83;;
19030;SDS011;9648;51.130;13.978;2023-02-25T06:13:13;6.40;;;4.30;;
19030;SDS011;9648;51.130;13.978;2023-02-25T06:15:40;5.75;;;4.10;;
19030;SDS011;9648;51.130;13.978;2023-02-25T06:18:07;5.10;;;4.28;;
19030;SDS011;9648;51.130;13.978;2023-02-25T06:20:34;5.72;;;3.70;;
19030;SDS011;9648;51.130;13.978;2023-02-25T06:23:03;5.60;;;3.70;;
19030;SDS011;9648;51.130;13.978;2023-02-25T06:25:30;5.30;;;3.97;;
19030;SDS011;9648;51.130;13.978;2023-02-25T06:27:57;5.78;;;3.60;;
19030;SDS011;9648;51.130;13.978;2023-02-25T06:30:24;4.82;;;3.55;;
19030;SDS011;9648;51.130;13.978;2023-02-25T06:32:52;3.92;;;3.13;;
19030;SDS011;9648;51.130;13.978;2023-02-25T06:35:19;4.07;;;3.30;;
19030;SDS011;9648;51.130;13.978;2023-02-25T06:37:47;3.88;;;3.10;;
19030;SDS011;9648;51.130;13.978;2023-02-25T06:40:15;5.50;;;3.35;;
19030;SDS011;9648;51.130;13.978;2023-02-25T06:42:42;5.15;;;3.20;;
19030;SDS011;9648;51.130;13.978;2023-02-25T06:45:09;4.47;;;3.17;;
19030;SDS011;9648;51.130;13.978;2023-02-25T06:47:36;4.55;;;3.47;;
19030;SDS011;9648;51.130;13.978;2023-02-25T06:50:04;4.95;;;3.78;;
19030;SDS011;9648;51.130;13.978;2023-02-25T06:52:31;6.50;;;4.32;;
19030;SDS011;9648;51.130;13.978;2023-02-25T06:54:58;6.37;;;4.53;;
19030;SDS011;9648;51.130;13.978;2023-02-25T06:57:26;8.07;;;4.75;;
19030;SDS011;9648;51.130;13.978;2023-02-25T06:59:53;6.72;;;4.78;;
19030;SDS011;9648;51.130;13.978;2023-02-25T07:02:19;8.40;;;5.15;;
19030;SDS011;9648;51.130;13.978;2023-02-25T07:04:46;8.07;;;5.22;;
19030;SDS011;9648;51.130;13.978;2023-02-25T07:07:13;7.53;;;5.15;;
19030;SDS011;9648;51.130;13.978;2023-02-25T07:09:39;8.97;;;5.43;;
19030;SDS011;9648;51.130;13.978;2023-02-25T07:12:06;7.80;;;5.73;;
19030;SDS011;9648;51.130;13.978;2023-02-25T07:14:34;8.23;;;5.63;;
19030;SDS011;9648;51.130;13.978;2023-02-25T07:17:01;8.20;;;5.78;;
19030;SDS011;9648;51.130;13.978;2023-02-25T07:19:28;7.90;;;5.70;;
19030;SDS011;9648;51.130;13.978;2023-02-25T07:21:55;10.50;;;6.15;;
19030;SDS011;9648;51.130;13.978;2023-02-25T07:24:22;8.40;;;6.03;;
19030;SDS011;9648;51.130;13.978;2023-02-25T07:26:50;7.43;;;5.63;;
19030;SDS011;9648;51.130;13.978;2023-02-25T07:29:17;8.70;;;5.70;;
19030;SDS011;9648;51.130;13.978;2023-02-25T07:31:45;8.27;;;5.70;;
19030;SDS011;9648;51.130;13.978;2023-02-25T07:34:12;8.38;;;5.75;;
19030;SDS011;9648;51.130;13.978;2023-02-25T07:36:39;9.93;;;5.60;;
19030;SDS011;9648;51.130;13.978;2023-02-25T07:39:07;9.30;;;5.82;;
19030;SDS011;9648;51.130;13.978;2023-02-25T07:41:35;9.25;;;5.55;;
19030;SDS011;9648;51.130;13.978;2023-02-25T07:44:02;6.95;;;5.22;;
19030;SDS011;9648;51.130;13.978;2023-02-25T07:46:30;7.13;;;4.82;;
19030;SDS011;9648;51.130;13.978;2023-02-25T07:48:59;7.97;;;4.85;;
19030;SDS011;9648;51.130;13.978;2023-02-25T07:51:26;7.82;;;4.85;;
19030;SDS011;9648;51.130;13.978;2023-02-25T07:53:54;8.32;;;4.80;;
19030;SDS011;9648;51.130;13.978;2023-02-25T07:56:22;7.57;;;4.65;;
19030;SDS011;9648;51.130;13.978;2023-02-25T07:58:51;9.50;;;4.50;;
19030;SDS011;9648;51.130;13.978;2023-02-25T08:01:18;8.27;;;4.53;;
19030;SDS011;9648;51.130;13.978;2023-02-25T08:03:47;6.77;;;4.50;;
19030;SDS011;9648;51.130;13.978;2023-02-25T08:06:15;8.30;;;4.40;;
19030;SDS011;9648;51.130;13.978;2023-02-25T08:08:42;8.70;;;4.60;;
19030;SDS011;9648;51.130;13.978;2023-02-25T08:11:10;6.35;;;4.20;;
19030;SDS011;9648;51.130;13.978;2023-02-25T08:13:38;5.25;;;4.03;;
19030;SDS011;9648;51.130;13.978;2023-02-25T08:16:05;6.68;;;4.43;;
19030;SDS011;9648;51.130;13.978;2023-02-25T08:18:33;5.63;;;4.18;;
19030;SDS011;9648;51.130;13.978;2023-02-25T08:21:00;6.05;;;4.00;;
19030;SDS011;9648;51.130;13.978;2023-02-25T08:23:29;6.57;;;4.13;;
19030;SDS011;9648;51.130;13.978;2023-02-25T08:25:56;5.30;;;3.92;;
19030;SDS011;9648;51.130;13.978;2023-02-25T08:28:24;7.97;;;4.00;;
19030;SDS011;9648;51.130;13.978;2023-02-25T08:30:55;6.20;;;4.10;;
19030;SDS011;9648;51.130;13.978;2023-02-25T08:33:22;5.80;;;3.78;;
19030;SDS011;9648;51.130;13.978;2023-02-25T08:35:49;6.15;;;3.67;;
19030;SDS011;9648;51.130;13.978;2023-02-25T08:38:16;5.05;;;3.72;;
19030;SDS011;9648;51.130;13.978;2023-02-25T08:40:45;5.30;;;3.30;;
19030;SDS011;9648;51.130;13.978;2023-02-25T08:43:11;5.63;;;3.47;;
19030;SDS011;9648;51.130;13.978;2023-02-25T08:45:39;6.57;;;3.80;;
19030;SDS011;9648;51.130;13.978;2023-02-25T08:48:06;7.28;;;3.83;;
19030;SDS011;9648;51.130;13.978;2023-02-25T08:50:33;7.00;;;4.00;;
19030;SDS011;9648;51.130;13.978;2023-02-25T08:53:00;6.32;;;4.25;;
19030;SDS011;9648;51.130;13.978;2023-02-25T08:55:27;6.07;;;4.38;;
19030;SDS011;9648;51.130;13.978;2023-02-25T08:57:55;7.30;;;4.30;;
19030;SDS011;9648;51.130;13.978;2023-02-25T09:00:22;8.02;;;4.80;;
19030;SDS011;9648;51.130;13.978;2023-02-25T09:02:49;7.75;;;4.40;;
19030;SDS011;9648;51.130;13.978;2023-02-25T09:05:16;6.15;;;4.60;;
19030;SDS011;9648;51.130;13.978;2023-02-25T09:07:42;5.85;;;3.90;;
19030;SDS011;9648;51.130;13.978;2023-02-25T09:10:09;6.30;;;4.00;;
19030;SDS011;9648;51.130;13.978;2023-02-25T09:12:37;6.55;;;3.88;;
19030;SDS011;9648;51.130;13.978;2023-02-25T09:15:08;5.40;;;3.67;;
19030;SDS011;9648;51.130;13.978;2023-02-25T09:17:36;5.00;;;3.60;;
19030;SDS011;9648;51.130;13.978;2023-02-25T09:20:03;7.25;;;3.80;;
19030;SDS011;9648;51.130;13.978;2023-02-25T09:22:32;5.03;;;3.63;;
19030;SDS011;9648;51.130;13.978;2023-02-25T09:24:58;5.97;;;3.87;;
19030;SDS011;9648;51.130;13.978;2023-02-25T09:27:25;4.95;;;3.65;;
19030;SDS011;9648;51.130;13.978;2023-02-25T09:29:52;5.13;;;3.45;;
19030;SDS011;9648;51.130;13.978;2023-02-25T09:32:21;5.32;;;3.80;;
19030;SDS011;9648;51.130;13.978;2023-02-25T09:34:48;4.85;;;3.63;;
19030;SDS011;9648;51.130;13.978;2023-02-25T09:37:15;7.30;;;3.50;;
19030;SDS011;9648;51.130;13.978;2023-02-25T09:39:43;7.13;;;3.63;;
19030;SDS011;9648;51.130;13.978;2023-02-25T09:42:12;4.30;;;3.10;;
19030;SDS011;9648;51.130;13.978;2023-02-25T09:44:44;4.45;;;2.97;;
19030;SDS011;9648;51.130;13.978;2023-02-25T09:47:14;4.70;;;3.13;;
19030;SDS011;9648;51.130;13.978;2023-02-25T09:49:47;6.03;;;3.20;;
19030;SDS011;9648;51.130;13.978;2023-02-25T09:52:20;5.68;;;2.75;;
19030;SDS011;9648;51.130;13.978;2023-02-25T09:54:54;4.20;;;2.70;;
19030;SDS011;9648;51.130;13.978;2023-02-25T09:57:24;4.97;;;2.88;;
19030;SDS011;9648;51.130;13.978;2023-02-25T09:59:53;4.57;;;2.60;;
19030;SDS011;9648;51.130;13.978;2023-02-25T10:02:29;4.72;;;3.00;;
19030;SDS011;9648;51.130;13.978;2023-02-25T10:05:14;4.60;;;2.80;;
19030;SDS011;9648;51.130;13.978;2023-02-25T10:07:50;5.28;;;2.80;;
19030;SDS011;9648;51.130;13.978;2023-02-25T10:10:24;3.90;;;2.38;;
19030;SDS011;9648;51.130;13.978;2023-02-25T10:12:55;3.92;;;2.30;;
19030;SDS011;9648;51.130;13.978;2023-02-25T10:15:33;3.33;;;2.45;;
19030;SDS011;9648;51.130;13.978;2023-02-25T10:18:13;2.90;;;2.22;;
19030;SDS011;9648;51.130;13.978;2023-02-25T10:21:01;3.45;;;2.10;;
19030;SDS011;9648;51.130;13.978;2023-02-25T10:23:42;3.97;;;2.80;;
19030;SDS011;9648;51.130;13.978;2023-02-25T10:26:17;3.92;;;2.13;;
19030;SDS011;9648;51.130;13.978;2023-02-25T10:28:46;2.97;;;2.10;;
19030;SDS011;9648;51.130;13.978;2023-02-25T10:31:16;2.92;;;2.10;;
19030;SDS011;9648;51.130;13.978;2023-02-25T10:33:45;4.03;;;2.20;;
19030;SDS011;9648;51.130;13.978;2023-02-25T10:36:16;3.83;;;2.05;;
19030;SDS011;9648;51.130;13.978;2023-02-25T10:38:46;4.28;;;2.25;;
19030;SDS011;9648;51.130;13.978;2023-02-25T10:41:15;2.95;;;2.10;;
19030;SDS011;9648;51.130;13.978;2023-02-25T10:43:44;3.80;;;2.33;;
19030;SDS011;9648;51.130;13.978;2023-02-25T10:46:12;4.43;;;2.00;;
19030;SDS011;9648;51.130;13.978;2023-02-25T10:48:41;3.42;;;1.98;;
19030;SDS011;9648;51.130;13.978;2023-02-25T10:51:17;3.95;;;1.90;;
19030;SDS011;9648;51.130;13.978;2023-02-25T10:53:59;3.53;;;2.10;;
19030;SDS011;9648;51.130;13.978;2023-02-25T10:56:32;3.30;;;1.80;;
19030;SDS011;9648;51.130;13.978;2023-02-25T10:59:05;2.28;;;1.85;;
19030;SDS011;9648;51.130;13.978;2023-02-25T11:01:43;3.10;;;1.73;;
19030;SDS011;9648;51.130;13.978;2023-02-25T11:04:12;3.38;;;1.90;;
19030;SDS011;9648;51.130;13.978;2023-02-25T11:06:44;3.60;;;1.92;;
19030;SDS011;9648;51.130;13.978;2023-02-25T11:09:26;2.97;;;1.90;;
19030;SDS011;9648;51.130;13.978;2023-02-25T11:11:55;2.75;;;1.50;;
19030;SDS011;9648;51.130;13.978;2023-02-25T11:14:25;2.53;;;1.75;;
19030;SDS011;9648;51.130;13.978;2023-02-25T11:17:00;2.80;;;1.85;;
19030;SDS011;9648;51.130;13.978;2023-02-25T11:19:28;3.63;;;2.20;;
19030;SDS011;9648;51.130;13.978;2023-02-25T11:21:59;2.97;;;2.03;;
19030;SDS011;9648;51.130;13.978;2023-02-25T11:24:34;2.78;;;1.70;;
19030;SDS011;9648;51.130;13.978;2023-02-25T11:27:04;2.38;;;1.67;;
19030;SDS011;9648;51.130;13.978;2023-02-25T11:29:33;2.00;;;1.63;;
19030;SDS011;9648;51.130;13.978;2023-02-25T11:32:06;2.00;;;1.52;;
19030;SDS011;9648;51.130;13.978;2023-02-25T11:34:37;2.73;;;1.60;;
19030;SDS011;9648;51.130;13.978;2023-02-25T11:37:30;1.50;;;1.40;;
19030;SDS011;9648;51.130;13.978;2023-02-25T11:40:02;1.65;;;1.33;;
19030;SDS011;9648;51.130;13.978;2023-02-25T11:42:44;2.63;;;1.60;;
19030;SDS011;9648;51.130;13.978;2023-02-25T11:45:28;3.38;;;1.73;;
19030;SDS011;9648;51.130;13.978;2023-02-25T11:47:56;2.20;;;1.73;;
19030;SDS011;9648;51.130;13.978;2023-02-25T11:50:24;2.00;;;1.60;;
19030;SDS011;9648;51.130;13.978;2023-02-25T11:52:58;2.80;;;1.85;;
19030;SDS011;9648;51.130;13.978;2023-02-25T11:55:35;2.70;;;1.80;;
19030;SDS011;9648;51.130;13.978;2023-02-25T11:58:19;2.70;;;1.83;;
19030;SDS011;9648;51.130;13.978;2023-02-25T12:00:56;2.80;;;1.70;;
19030;SDS011;9648;51.130;13.978;2023-02-25T12:03:48;2.72;;;1.90;;
19030;SDS011;9648;51.130;13.978;2023-02-25T12:06:47;2.67;;;1.70;;
19030;SDS011;9648;51.130;13.978;2023-02-25T12:09:42;2.63;;;1.77;;
19030;SDS011;9648;51.130;13.978;2023-02-25T12:21:52;3.05;;;1.80;;
19030;SDS011;9648;51.130;13.978;2023-02-25T12:24:41;3.37;;;2.07;;
19030;SDS011;9648;51.130;13.978;2023-02-25T12:27:30;2.78;;;2.05;;
19030;SDS011;9648;51.130;13.978;2023-02-25T12:30:26;2.50;;;2.00;;
19030;SDS011;9648;51.130;13.978;2023-02-25T12:33:04;2.40;;;2.00;;
19030;SDS011;9648;51.130;13.978;2023-02-25T12:35:46;2.10;;;1.70;;
19030;SDS011;9648;51.130;13.978;2023-02-25T12:41:45;1.48;;;1.10;;
19030;SDS011;9648;51.130;13.978;2023-02-25T12:44:38;0.95;;;0.70;;
19030;SDS011;9648;51.130;13.978;2023-02-25T12:47:30;0.77;;;0.77;;
19030;SDS011;9648;51.130;13.978;2023-02-25T12:50:16;1.10;;;0.80;;
19030;SDS011;9648;51.130;13.978;2023-02-25T12:53:11;1.10;;;0.80;;
19030;SDS011;9648;51.130;13.978;2023-02-25T12:55:58;0.90;;;0.80;;
19030;SDS011;9648;51.130;13.978;2023-02-25T12:58:41;1.88;;;1.15;;
19030;SDS011;9648;51.130;13.978;2023-02-25T13:01:21;2.00;;;0.93;;
19030;SDS011;9648;51.130;13.978;2023-02-25T13:07:29;6.75;;;5.13;;
19030;SDS011;9648;51.130;13.978;2023-02-25T13:10:23;7.30;;;6.63;;
19030;SDS011;9648;51.130;13.978;2023-02-25T13:13:45;2.60;;;2.40;;
19030;SDS011;9648;51.130;13.978;2023-02-25T13:16:26;2.80;;;2.60;;
19030;SDS011;9648;51.130;13.978;2023-02-25T13:19:23;1.85;;;1.75;;
19030;SDS011;9648;51.130;13.978;2023-02-25T13:22:04;2.03;;;1.85;;
19030;SDS011;9648;51.130;13.978;2023-02-25T13:24:45;2.17;;;2.05;;
19030;SDS011;9648;51.130;13.978;2023-02-25T13:27:22;2.27;;;1.50;;
19030;SDS011;9648;51.130;13.978;2023-02-25T13:30:04;1.98;;;1.80;;
19030;SDS011;9648;51.130;13.978;2023-02-25T13:32:48;1.30;;;1.00;;
19030;SDS011;9648;51.130;13.978;2023-02-25T13:35:28;1.90;;;1.70;;
19030;SDS011;9648;51.130;13.978;2023-02-25T13:38:06;1.73;;;1.40;;
19030;SDS011;9648;51.130;13.978;2023-02-25T13:40:46;1.40;;;1.23;;
19030;SDS011;9648;51.130;13.978;2023-02-25T13:43:32;2.00;;;1.80;;
19030;SDS011;9648;51.130;13.978;2023-02-25T13:49:27;3.40;;;2.90;;
19030;SDS011;9648;51.130;13.978;2023-02-25T13:52:04;2.78;;;1.70;;
19030;SDS011;9648;51.130;13.978;2023-02-25T13:54:47;2.00;;;1.77;;
19030;SDS011;9648;51.130;13.978;2023-02-25T13:57:49;1.97;;;1.60;;
19030;SDS011;9648;51.130;13.978;2023-02-25T14:00:37;3.03;;;2.58;;
19030;SDS011;9648;51.130;13.978;2023-02-25T14:03:39;1.60;;;1.50;;
19030;SDS011;9648;51.130;13.978;2023-02-25T14:06:19;2.90;;;2.47;;
19030;SDS011;9648;51.130;13.978;2023-02-25T14:09:00;19.38;;;16.77;;
19030;SDS011;9648;51.130;13.978;2023-02-25T14:11:40;7.22;;;6.30;;
19030;SDS011;9648;51.130;13.978;2023-02-25T14:14:21;11.18;;;8.73;;
19030;SDS011;9648;51.130;13.978;2023-02-25T14:20:14;27.13;;;15.50;;
19030;SDS011;9648;51.130;13.978;2023-02-25T14:22:48;7.22;;;5.60;;
19030;SDS011;9648;51.130;13.978;2023-02-25T14:25:25;12.70;;;9.90;;
19030;SDS011;9648;51.130;13.978;2023-02-25T14:28:00;3.55;;;3.25;;
19030;SDS011;9648;51.130;13.978;2023-02-25T14:30:37;2.30;;;2.00;;
19030;SDS011;9648;51.130;13.978;2023-02-25T14:33:14;2.70;;;1.80;;
19030;SDS011;9648;51.130;13.978;2023-02-25T14:35:53;10.75;;;8.27;;
19030;SDS011;9648;51.130;13.978;2023-02-25T14:38:45;6.07;;;5.15;;
19030;SDS011;9648;51.130;13.978;2023-02-25T14:41:27;3.33;;;2.92;;
19030;SDS011;9648;51.130;13.978;2023-02-25T14:44:00;3.47;;;3.17;;
19030;SDS011;9648;51.130;13.978;2023-02-25T14:46:33;2.27;;;2.07;;
19030;SDS011;9648;51.130;13.978;2023-02-25T14:49:05;4.55;;;4.00;;
19030;SDS011;9648;51.130;13.978;2023-02-25T14:51:56;2.70;;;2.33;;
19030;SDS011;9648;51.130;13.978;2023-02-25T14:54:50;2.35;;;1.90;;
19030;SDS011;9648;51.130;13.978;2023-02-25T14:57:53;2.17;;;1.30;;
19030;SDS011;9648;51.130;13.978;2023-02-25T15:00:58;2.28;;;1.50;;
19030;SDS011;9648;51.130;13.978;2023-02-25T15:03:53;2.22;;;2.03;;
19030;SDS011;9648;51.130;13.978;2023-02-25T15:06:45;1.98;;;1.70;;
19030;SDS011;9648;51.130;13.978;2023-02-25T15:12:34;2.50;;;2.30;;
19030;SDS011;9648;51.130;13.978;2023-02-25T15:15:28;3.00;;;1.95;;
19030;SDS011;9648;51.130;13.978;2023-02-25T15:21:33;2.35;;;1.90;;
19030;SDS011;9648;51.130;13.978;2023-02-25T15:24:03;1.88;;;1.67;;
19030;SDS011;9648;51.130;13.978;2023-02-25T15:26:39;3.42;;;1.80;;
19030;SDS011;9648;51.130;13.978;2023-02-25T15:29:19;1.87;;;1.60;;
19030;SDS011;9648;51.130;13.978;2023-02-25T15:32:14;2.38;;;1.67;;
19030;SDS011;9648;51.130;13.978;2023-02-25T15:34:53;1.27;;;1.00;;
19030;SDS011;9648;51.130;13.978;2023-02-25T15:37:27;1.20;;;0.75;;
19030;SDS011;9648;51.130;13.978;2023-02-25T15:39:56;0.60;;;0.60;;
19030;SDS011;9648;51.130;13.978;2023-02-25T15:42:38;0.85;;;0.70;;
19030;SDS011;9648;51.130;13.978;2023-02-25T15:45:31;9.48;;;5.88;;